Sheridan, WY (82801)

9:27 AM MST on February 06, 2016 (GMT -0700)
South Sheridan | | Change Station
CLOSE
Current Station
Personal Weather Station
Location: Sheridan, WY
Elevation: 3770 ft
Nearby Weather Stations
Active Advisory: High Wind Watch

Elev 3770 ft 44.79 °N, 106.95 °W | Updated 5 seconds ago

Clear
Clear
30.0 °F
Feels Like 30 °F
N
0.0
Wind Variable Wind from South
Gusts 0.0 mph

Today
High -- | Low -- °F
--% Chance of Precip.
Yesterday
High -- | Low -- °F
Precip. -- in
Pressure 30.06 in
Visibility -9999.0 miles
Clouds Clear
Windchill 30 °F
Dew Point 20 °F
Humidity 66%
Rainfall 0.00 in
Snow Depth Not available.
7:21 AM 5:22 PM
Waning Crescent, 5% visible
METAR KSHR 061453Z AUTO 21004KT CLR 03/M07 A2996 RMK AO2 SLP180 T00331067 58014 $
Pressure 30.06 in
Visibility -9999.0 miles
Clouds Clear
Windchill 30 °F
Dew Point 20 °F
Humidity 66%
Rainfall 0.00 in
Snow Depth Not available.
7:21 AM 5:22 PM
Waning Crescent, 5% visible
METAR KSHR 061453Z AUTO 21004KT CLR 03/M07 A2996 RMK AO2 SLP180 T00331067 58014 $

10-Day Weather Forecast

Almanac

Astronomy

Feb. 06, 2016 Rise Set
Actual Time
Civil Twilight
Nautical Twilight
Astronomical Twilight
Moon
Length of Visible Light
Length of Day
Tomorrow will be .
, % of the Moon is Illuminated

Today's Extremes

State Highs State Lows

Community

WunderPhotos

Upload Photos

1,891,013 photos uploaded!

WunderBlog® & News

Nearby

Air Quality

  Air Quality AQ Index Pollutant
Not available.

Snow Depth

Station Depth Elevation

Earthquake Activity

City Distance Mag. Time & Date
Minimum magnitude displayed is 2.5.

Coastal Water Temperatures

Place Temperature

Stations

Nearby Weather Stations

Station Location Temp. Windchill Dew Point Humidity Wind Precip. Elev Updated Type
                   

Watches & Warnings

High Wind Watch
Issued: 9:25 AM MST Feb. 6, 2016 – National Weather Service

... High wind watch remains in effect through this evening...

* impacts... dangerous cross winds could make travel hazardous
for high profile and Load carrying vehicles.

* Timing... west to northwest winds will increase by afternoon
behind a cold front. Winds are expected to diminish by late
evening.

* Winds... peak gusts from 55 to 65 mph are possible.

Precautionary/preparedness actions...

Winds of these magnitudes can cause property damage without extra
precautions. Motorists in high profile vehicles should use
caution until the winds subside.



Http://weather.Gov/Billings